Time;durP1;ratioP1;P1;durP2;ratioP2;P2;SDS_P1;SDS_P2;PMS_P1;PMS_P2;Temp;Humidity;BMP_temperature;BMP_pressure;BME280_temperature;BME280_humidity;BME280_pressure;Samples;Min_cycle;Max_cycle;Signal;HPM_P1;HPM_P2
2022/08/07 00:00:45;;;;;;;10.90;4.10;;;;;;;;;;5053276;28;20477;-48
2022/08/07 00:03:11;;;;;;;4.70;3.90;;;;;;;;;;5066930;28;20469;-48
2022/08/07 00:05:37;;;;;;;4.20;3.80;;;;;;;;;;5073166;28;20497;-48
2022/08/07 00:08:04;;;;;;;3.40;3.10;;;;;;;;;;5073085;28;20970;-49
2022/08/07 00:10:30;;;;;;;3.30;2.67;;;;;;;;;;5072478;28;20413;-48
2022/08/07 00:12:59;;;;;;;4.93;3.70;;;;;;;;;;5073057;28;20881;-48
2022/08/07 00:15:25;;;;;;;4.00;3.70;;;;;;;;;;5056117;28;20455;-48
2022/08/07 00:17:51;;;;;;;4.13;3.70;;;;;;;;;;5052990;28;20427;-48
2022/08/07 00:20:17;;;;;;;4.07;3.77;;;;;;;;;;5052257;28;20935;-48
2022/08/07 00:22:43;;;;;;;4.43;4.03;;;;;;;;;;5053142;28;20481;-48
2022/08/07 00:25:09;;;;;;;4.17;3.80;;;;;;;;;;5052951;28;20395;-48
2022/08/07 00:27:35;;;;;;;5.70;4.60;;;;;;;;;;5052762;28;20534;-48
2022/08/07 00:30:02;;;;;;;8.10;4.80;;;;;;;;;;5052137;28;20403;-48
2022/08/07 00:32:28;;;;;;;4.47;3.60;;;;;;;;;;5052841;28;20389;-48
2022/08/07 00:34:54;;;;;;;5.93;3.63;;;;;;;;;;5052751;28;20383;-48
2022/08/07 00:37:20;;;;;;;6.07;3.60;;;;;;;;;;5052586;28;20476;-48
2022/08/07 00:39:46;;;;;;;3.43;3.13;;;;;;;;;;5051818;28;20412;-48
2022/08/07 00:42:12;;;;;;;6.60;3.53;;;;;;;;;;5052596;28;20416;-49
2022/08/07 00:44:38;;;;;;;3.77;3.47;;;;;;;;;;5052906;28;20436;-49
2022/08/07 00:47:05;;;;;;;4.10;3.70;;;;;;;;;;5052294;28;20797;-48
2022/08/07 00:49:31;;;;;;;7.87;3.63;;;;;;;;;;5052364;28;20381;-48
2022/08/07 00:51:58;;;;;;;4.70;4.30;;;;;;;;;;5051774;28;20870;-48
2022/08/07 00:54:23;;;;;;;5.00;3.90;;;;;;;;;;5052385;28;20824;-48
2022/08/07 00:56:50;;;;;;;5.17;3.90;;;;;;;;;;5052255;28;20449;-48
2022/08/07 00:59:20;;;;;;;8.20;4.30;;;;;;;;;;5052340;28;20437;-48
2022/08/07 01:01:47;;;;;;;5.33;3.97;;;;;;;;;;5050675;28;20511;-48
2022/08/07 01:04:14;;;;;;;4.97;4.40;;;;;;;;;;5051531;28;20906;-49
2022/08/07 01:06:40;;;;;;;4.80;4.20;;;;;;;;;;5051502;28;20435;-48
2022/08/07 01:09:06;;;;;;;3.80;3.50;;;;;;;;;;5051807;28;20382;-48
2022/08/07 01:11:33;;;;;;;4.83;3.80;;;;;;;;;;5051459;28;20404;-48
2022/08/07 01:13:59;;;;;;;5.17;3.90;;;;;;;;;;5055267;28;20427;-48
2022/08/07 01:16:25;;;;;;;5.83;3.40;;;;;;;;;;5071053;28;20456;-48
2022/08/07 01:18:52;;;;;;;8.23;4.43;;;;;;;;;;5071912;28;20463;-48
2022/08/07 01:21:23;;;;;;;5.00;3.70;;;;;;;;;;5071611;28;20413;-48
2022/08/07 01:23:50;;;;;;;4.73;3.60;;;;;;;;;;5071741;28;20399;-48
2022/08/07 01:26:19;;;;;;;5.70;3.50;;;;;;;;;;5071899;28;20396;-48
2022/08/07 01:28:46;;;;;;;4.63;4.03;;;;;;;;;;5071700;28;20993;-48
2022/08/07 01:31:13;;;;;;;3.93;3.63;;;;;;;;;;5071233;28;20435;-48
2022/08/07 01:33:39;;;;;;;4.57;4.17;;;;;;;;;;5071856;28;20403;-48
2022/08/07 01:36:08;;;;;;;6.40;4.13;;;;;;;;;;5071757;28;20919;-48
2022/08/07 01:38:34;;;;;;;4.80;3.33;;;;;;;;;;5071778;28;20409;-48
2022/08/07 01:41:01;;;;;;;6.60;3.90;;;;;;;;;;5071097;28;20433;-48
2022/08/07 01:43:28;;;;;;;5.93;4.60;;;;;;;;;;5071777;28;20378;-48
2022/08/07 01:45:54;;;;;;;4.63;3.83;;;;;;;;;;5060467;28;20427;-48
2022/08/07 01:48:20;;;;;;;7.13;3.40;;;;;;;;;;5071651;28;20799;-48
2022/08/07 01:50:48;;;;;;;5.40;4.20;;;;;;;;;;5070972;28;20402;-50
2022/08/07 01:53:14;;;;;;;3.90;3.60;;;;;;;;;;5071698;28;20374;-48
2022/08/07 01:55:43;;;;;;;6.23;3.93;;;;;;;;;;5071541;28;20890;-48
2022/08/07 01:58:13;;;;;;;5.53;3.80;;;;;;;;;;5071999;28;20428;-48
2022/08/07 02:00:40;;;;;;;6.23;3.50;;;;;;;;;;5070941;28;20724;-48
2022/08/07 02:03:11;;;;;;;3.73;3.43;;;;;;;;;;5071519;28;20377;-48
2022/08/07 02:05:39;;;;;;;3.77;3.47;;;;;;;;;;5071412;28;20738;-47
2022/08/07 02:08:14;;;;;;;4.67;3.50;;;;;;;;;;5071445;28;20449;-48
2022/08/07 02:10:43;;;;;;;3.40;3.10;;;;;;;;;;5070635;28;20465;-48
2022/08/07 02:13:10;;;;;;;5.87;3.90;;;;;;;;;;5070630;28;20405;-48
2022/08/07 02:15:37;;;;;;;4.17;3.60;;;;;;;;;;5070862;28;20484;-49
2022/08/07 02:18:03;;;;;;;5.53;3.23;;;;;;;;;;5074775;28;20397;-48
2022/08/07 02:20:30;;;;;;;3.40;3.10;;;;;;;;;;5074569;28;20467;-48
2022/08/07 02:22:58;;;;;;;5.13;3.50;;;;;;;;;;5075108;28;20405;-48
2022/08/07 02:25:25;;;;;;;3.50;3.20;;;;;;;;;;5075083;28;20401;-48
2022/08/07 02:27:51;;;;;;;4.53;3.40;;;;;;;;;;5075006;28;21034;-48
2022/08/07 02:30:17;;;;;;;4.33;3.47;;;;;;;;;;5074362;28;20408;-49
2022/08/07 02:32:43;;;;;;;3.93;3.50;;;;;;;;;;5074981;28;20771;-48
2022/08/07 02:35:10;;;;;;;3.27;2.93;;;;;;;;;;5074988;28;20399;-50
2022/08/07 02:37:38;;;;;;;4.33;2.97;;;;;;;;;;5074747;28;20462;-48
2022/08/07 02:40:05;;;;;;;3.77;3.20;;;;;;;;;;5074142;28;20460;-48
2022/08/07 02:42:32;;;;;;;3.87;3.13;;;;;;;;;;5075086;28;20414;-48
2022/08/07 02:44:59;;;;;;;3.77;3.40;;;;;;;;;;5061358;28;20508;-50
2022/08/07 02:47:25;;;;;;;5.57;3.33;;;;;;;;;;5074563;28;21033;-48
2022/08/07 02:49:52;;;;;;;3.70;3.40;;;;;;;;;;5074008;28;20416;-48
2022/08/07 02:52:23;;;;;;;4.40;4.00;;;;;;;;;;5074721;28;20904;-48
2022/08/07 02:54:50;;;;;;;3.97;3.67;;;;;;;;;;5074762;28;20484;-48
2022/08/07 02:57:18;;;;;;;3.93;3.60;;;;;;;;;;5074469;28;20444;-48
2022/08/07 02:59:49;;;;;;;3.60;3.23;;;;;;;;;;5073800;28;20405;-48
2022/08/07 03:02:15;;;;;;;6.80;3.67;;;;;;;;;;5074507;28;20487;-48
2022/08/07 03:04:42;;;;;;;4.80;3.70;;;;;;;;;;5074358;28;20411;-48
2022/08/07 03:07:08;;;;;;;6.10;3.67;;;;;;;;;;5074319;28;20467;-49
2022/08/07 03:09:35;;;;;;;5.23;3.67;;;;;;;;;;5074284;28;20476;-48
2022/08/07 03:12:04;;;;;;;6.23;3.77;;;;;;;;;;5073534;28;20397;-48
2022/08/07 03:14:31;;;;;;;4.13;3.60;;;;;;;;;;5059365;28;20777;-48
2022/08/07 03:16:57;;;;;;;3.73;3.43;;;;;;;;;;5054122;28;20428;-48
2022/08/07 03:19:24;;;;;;;6.17;3.50;;;;;;;;;;5054051;28;20408;-48
2022/08/07 03:21:50;;;;;;;4.27;3.90;;;;;;;;;;5053463;28;20915;-49
2022/08/07 03:24:16;;;;;;;4.30;3.90;;;;;;;;;;5054127;28;20401;-48
2022/08/07 03:26:44;;;;;;;5.07;4.00;;;;;;;;;;5053914;28;20435;-48
2022/08/07 03:29:11;;;;;;;4.73;3.90;;;;;;;;;;5052620;28;20812;-48
2022/08/07 03:31:37;;;;;;;4.00;3.60;;;;;;;;;;5053126;28;20409;-47
2022/08/07 03:34:06;;;;;;;4.90;4.10;;;;;;;;;;5053961;28;20395;-48
2022/08/07 03:36:33;;;;;;;4.03;3.77;;;;;;;;;;5053761;28;20426;-48
2022/08/07 03:39:02;;;;;;;5.60;3.60;;;;;;;;;;5053395;28;20746;-48
2022/08/07 03:41:29;;;;;;;3.67;3.40;;;;;;;;;;5053103;28;20408;-48
2022/08/07 03:43:55;;;;;;;4.40;3.77;;;;;;;;;;5053818;28;20434;-48
2022/08/07 03:46:22;;;;;;;4.10;3.80;;;;;;;;;;5061943;28;20427;-48
2022/08/07 03:48:48;;;;;;;6.03;3.80;;;;;;;;;;5073789;28;20544;-48
2022/08/07 03:51:15;;;;;;;4.47;3.77;;;;;;;;;;5072866;28;20405;-48
2022/08/07 03:53:41;;;;;;;4.10;3.40;;;;;;;;;;5073579;28;20421;-48
2022/08/07 03:56:07;;;;;;;5.20;4.13;;;;;;;;;;5073454;28;20395;-48
2022/08/07 03:58:33;;;;;;;3.97;3.47;;;;;;;;;;5072023;28;20428;-49
2022/08/07 04:01:00;;;;;;;3.60;3.30;;;;;;;;;;5072687;28;20413;-48
2022/08/07 04:03:26;;;;;;;3.70;3.40;;;;;;;;;;5073603;28;20428;-49
2022/08/07 04:05:52;;;;;;;4.47;3.73;;;;;;;;;;5073326;28;20424;-50
2022/08/07 04:08:18;;;;;;;4.30;3.90;;;;;;;;;;5073152;28;20555;-48
2022/08/07 04:10:44;;;;;;;6.90;3.87;;;;;;;;;;5072514;28;20482;-48
2022/08/07 04:13:11;;;;;;;9.07;4.27;;;;;;;;;;5070778;28;20449;-48
2022/08/07 04:15:37;;;;;;;5.00;3.40;;;;;;;;;;5072249;28;20428;-50
2022/08/07 04:18:03;;;;;;;7.40;3.63;;;;;;;;;;5073327;28;20981;-48
2022/08/07 04:20:29;;;;;;;13.70;3.73;;;;;;;;;;5072164;28;20437;-48
2022/08/07 04:22:55;;;;;;;7.87;4.20;;;;;;;;;;5072919;28;20416;-50
2022/08/07 04:25:22;;;;;;;4.23;3.70;;;;;;;;;;5072861;28;20479;-48
2022/08/07 04:27:48;;;;;;;4.13;3.83;;;;;;;;;;5072708;28;20543;-49
2022/08/07 04:30:14;;;;;;;4.17;3.23;;;;;;;;;;5072229;28;20519;-48
2022/08/07 04:32:41;;;;;;;5.43;4.00;;;;;;;;;;5072758;28;20412;-49
2022/08/07 04:35:08;;;;;;;7.40;3.80;;;;;;;;;;5072736;28;20405;-48
2022/08/07 04:37:34;;;;;;;4.80;3.87;;;;;;;;;;5072692;28;20428;-48
2022/08/07 04:40:01;;;;;;;3.67;3.40;;;;;;;;;;5071459;28;20404;-48
2022/08/07 04:42:29;;;;;;;3.33;3.13;;;;;;;;;;5072582;28;20404;-48
2022/08/07 04:44:56;;;;;;;4.17;3.50;;;;;;;;;;5061097;28;20502;-48
2022/08/07 04:47:57;;;;;;;3.53;3.23;;;;;;;;;;5072415;28;20507;-48
2022/08/07 04:50:26;;;;;;;6.33;3.80;;;;;;;;;;5049293;28;20421;-49
2022/08/07 04:53:02;;;;;;;4.23;3.47;;;;;;;;;;5068481;28;20405;-48
2022/08/07 04:55:31;;;;;;;4.60;3.90;;;;;;;;;;5072551;28;20410;-48
2022/08/07 04:57:57;;;;;;;4.60;3.70;;;;;;;;;;5072244;28;20507;-48
2022/08/07 05:00:42;;;;;;;3.77;3.40;;;;;;;;;;5071512;28;20414;-48
2022/08/07 05:03:14;;;;;;;4.30;3.40;;;;;;;;;;5072251;28;20487;-48
2022/08/07 05:05:45;;;;;;;4.50;4.20;;;;;;;;;;5072187;28;20401;-48
2022/08/07 05:08:23;;;;;;;4.43;4.03;;;;;;;;;;5072065;28;20813;-49
2022/08/07 05:11:01;;;;;;;4.50;3.70;;;;;;;;;;5071475;28;20436;-50
2022/08/07 05:13:35;;;;;;;5.20;3.93;;;;;;;;;;5072060;28;20454;-48
2022/08/07 05:16:02;;;;;;;4.40;4.00;;;;;;;;;;5068778;28;20451;-48
2022/08/07 05:18:29;;;;;;;5.67;3.60;;;;;;;;;;5061481;28;20434;-48
2022/08/07 05:21:05;;;;;;;4.27;3.40;;;;;;;;;;5051280;28;20402;-48
2022/08/07 05:23:31;;;;;;;8.30;3.60;;;;;;;;;;5052017;28;20420;-48
2022/08/07 05:25:58;;;;;;;4.50;3.40;;;;;;;;;;5051839;28;20480;-48
2022/08/07 05:28:25;;;;;;;4.80;3.20;;;;;;;;;;5051751;28;20457;-48
2022/08/07 05:30:51;;;;;;;3.80;3.50;;;;;;;;;;5051123;28;20772;-48
2022/08/07 05:33:17;;;;;;;5.37;3.40;;;;;;;;;;5051975;28;20756;-49
2022/08/07 05:35:44;;;;;;;4.50;3.47;;;;;;;;;;5051748;28;20401;-48
2022/08/07 05:38:11;;;;;;;7.53;3.90;;;;;;;;;;5051774;28;20412;-48
2022/08/07 05:40:38;;;;;;;4.13;3.70;;;;;;;;;;5051214;28;20800;-48
2022/08/07 05:43:04;;;;;;;5.20;4.40;;;;;;;;;;5051656;28;20376;-48
2022/08/07 05:45:31;;;;;;;5.10;4.50;;;;;;;;;;5051704;28;20457;-48
2022/08/07 05:47:57;;;;;;;14.43;5.73;;;;;;;;;;5065304;28;20547;-48
2022/08/07 05:50:23;;;;;;;10.60;5.50;;;;;;;;;;5071059;28;20402;-48
2022/08/07 05:52:49;;;;;;;8.47;5.37;;;;;;;;;;5074961;28;20412;-48
2022/08/07 05:55:15;;;;;;;7.37;5.10;;;;;;;;;;5075797;28;20399;-48
2022/08/07 05:57:42;;;;;;;8.07;4.40;;;;;;;;;;5075555;28;20460;-48
2022/08/07 06:00:08;;;;;;;5.80;3.20;;;;;;;;;;5075077;28;20399;-48
2022/08/07 06:02:35;;;;;;;3.77;3.03;;;;;;;;;;5074922;28;20414;-48
2022/08/07 06:05:03;;;;;;;3.93;3.33;;;;;;;;;;5075200;28;20407;-50
2022/08/07 06:07:30;;;;;;;3.63;3.00;;;;;;;;;;5073642;28;20469;-48
2022/08/07 06:09:56;;;;;;;2.93;2.73;;;;;;;;;;5074129;28;20464;-48
2022/08/07 06:12:22;;;;;;;3.30;3.00;;;;;;;;;;5073401;28;20414;-48
2022/08/07 06:14:48;;;;;;;3.70;3.43;;;;;;;;;;5074286;28;20754;-49
2022/08/07 06:17:14;;;;;;;3.37;3.10;;;;;;;;;;5054979;28;20492;-49
2022/08/07 06:19:40;;;;;;;3.40;3.20;;;;;;;;;;5054355;28;20492;-50
2022/08/07 06:22:06;;;;;;;2.90;2.70;;;;;;;;;;5054072;28;20396;-48
2022/08/07 06:24:32;;;;;;;3.40;3.10;;;;;;;;;;5054662;28;20423;-50
2022/08/07 06:26:59;;;;;;;2.77;2.57;;;;;;;;;;5054482;28;20388;-48
2022/08/07 06:29:28;;;;;;;3.10;2.90;;;;;;;;;;5054386;28;20375;-48
2022/08/07 06:31:54;;;;;;;4.70;2.90;;;;;;;;;;5055954;28;20397;-48
2022/08/07 06:34:24;;;;;;;7.17;2.63;;;;;;;;;;5063288;28;20406;-48
2022/08/07 06:36:50;;;;;;;2.80;2.50;;;;;;;;;;5054443;28;20411;-48
2022/08/07 06:39:16;;;;;;;3.57;3.30;;;;;;;;;;5053519;28;20376;-48
2022/08/07 06:41:44;;;;;;;7.13;2.83;;;;;;;;;;5054061;28;20426;-49
2022/08/07 06:44:11;;;;;;;2.70;2.50;;;;;;;;;;5054665;28;20371;-48
2022/08/07 06:46:37;;;;;;;4.17;3.00;;;;;;;;;;5053374;28;20967;-48
2022/08/07 06:49:04;;;;;;;2.90;2.70;;;;;;;;;;5054574;28;20764;-48
2022/08/07 06:51:33;;;;;;;2.77;2.50;;;;;;;;;;5054079;28;20401;-48
2022/08/07 06:54:03;;;;;;;3.40;3.10;;;;;;;;;;5054664;28;20398;-49
2022/08/07 06:56:39;;;;;;;2.80;2.60;;;;;;;;;;5054426;28;20399;-49
2022/08/07 06:59:09;;;;;;;3.20;2.60;;;;;;;;;;5054559;28;20401;-50
2022/08/07 07:01:36;;;;;;;2.80;2.60;;;;;;;;;;5053965;28;20433;-48
2022/08/07 07:04:03;;;;;;;3.20;2.83;;;;;;;;;;5054230;28;20430;-49
2022/08/07 07:06:30;;;;;;;2.70;2.50;;;;;;;;;;5054321;28;20430;-48
2022/08/07 07:08:56;;;;;;;6.00;2.80;;;;;;;;;;5054204;28;20457;-49
2022/08/07 07:11:22;;;;;;;3.10;2.40;;;;;;;;;;5053805;28;20865;-50
2022/08/07 07:13:50;;;;;;;5.30;2.40;;;;;;;;;;5054360;28;20406;-49
2022/08/07 07:16:21;;;;;;;3.40;2.13;;;;;;;;;;5067576;28;20425;-49
2022/08/07 07:18:54;;;;;;;2.37;2.27;;;;;;;;;;5074087;28;20884;-48
2022/08/07 07:21:21;;;;;;;3.03;2.83;;;;;;;;;;5073789;28;20460;-48
2022/08/07 07:23:48;;;;;;;2.30;2.20;;;;;;;;;;5074153;28;20413;-49
2022/08/07 07:26:16;;;;;;;2.10;2.00;;;;;;;;;;5073962;28;20912;-49
2022/08/07 07:28:45;;;;;;;2.20;2.00;;;;;;;;;;5074023;28;20467;-49
2022/08/07 07:31:47;;;;;;;2.30;2.10;;;;;;;;;;5073208;28;20502;-50
2022/08/07 07:34:16;;;;;;;2.50;2.30;;;;;;;;;;5050891;28;20421;-48
2022/08/07 07:36:44;;;;;;;3.77;1.90;;;;;;;;;;5053319;28;20467;-49
2022/08/07 07:39:11;;;;;;;2.27;2.17;;;;;;;;;;5057344;28;20490;-48
2022/08/07 07:41:39;;;;;;;2.00;1.80;;;;;;;;;;5072995;28;20810;-49
2022/08/07 07:44:06;;;;;;;2.43;2.33;;;;;;;;;;5073469;28;20436;-49
2022/08/07 07:46:34;;;;;;;2.23;2.00;;;;;;;;;;5060054;28;20523;-48
2022/08/07 07:49:02;;;;;;;4.50;1.80;;;;;;;;;;5070652;28;20491;-49
2022/08/07 07:51:28;;;;;;;2.00;1.90;;;;;;;;;;5071641;28;20409;-48
2022/08/07 07:53:54;;;;;;;1.70;1.60;;;;;;;;;;5073577;28;20408;-48
2022/08/07 07:56:22;;;;;;;1.90;1.80;;;;;;;;;;5073173;28;20419;-48
2022/08/07 07:58:55;;;;;;;2.30;1.60;;;;;;;;;;5073411;28;20411;-49
2022/08/07 08:01:22;;;;;;;2.93;1.40;;;;;;;;;;5072173;28;20961;-49
2022/08/07 08:03:48;;;;;;;1.43;1.33;;;;;;;;;;5073370;28;20501;-50
2022/08/07 08:06:15;;;;;;;1.80;1.70;;;;;;;;;;5073262;28;20457;-50
2022/08/07 08:08:42;;;;;;;1.40;1.30;;;;;;;;;;5072986;28;20953;-49
2022/08/07 08:11:08;;;;;;;4.23;1.30;;;;;;;;;;5072538;28;20406;-49
2022/08/07 08:13:35;;;;;;;4.53;1.23;;;;;;;;;;5072919;28;20894;-50
2022/08/07 08:16:01;;;;;;;1.80;1.20;;;;;;;;;;5067261;28;20449;-49
2022/08/07 08:18:29;;;;;;;2.93;1.23;;;;;;;;;;5053084;28;20896;-49
2022/08/07 08:20:56;;;;;;;1.13;0.93;;;;;;;;;;5070688;28;20434;-49
2022/08/07 08:28:53;;;;;;;1.10;0.90;;;;;;;;;;5072758;28;20828;-50
2022/08/07 08:31:22;;;;;;;1.10;0.90;;;;;;;;;;5072189;28;20806;-49
2022/08/07 08:33:51;;;;;;;1.53;1.00;;;;;;;;;;5072739;28;20492;-50
2022/08/07 08:36:18;;;;;;;1.40;0.90;;;;;;;;;;5072966;28;20424;-49
2022/08/07 08:38:45;;;;;;;0.93;0.83;;;;;;;;;;5072760;28;20487;-49
2022/08/07 08:41:14;;;;;;;1.20;1.10;;;;;;;;;;5071951;28;20896;-49
2022/08/07 08:43:54;;;;;;;0.90;0.80;;;;;;;;;;5072673;28;20896;-49
2022/08/07 08:46:24;;;;;;;1.33;0.90;;;;;;;;;;5069485;28;20452;-49
2022/08/07 08:48:53;;;;;;;1.20;1.10;;;;;;;;;;5052413;28;20456;-49
2022/08/07 08:51:23;;;;;;;4.47;0.90;;;;;;;;;;5070140;28;20460;-49
2022/08/07 08:53:56;;;;;;;1.10;0.90;;;;;;;;;;5072457;28;20404;-49
2022/08/07 08:56:26;;;;;;;1.37;0.70;;;;;;;;;;5072302;28;20448;-50
2022/08/07 08:58:56;;;;;;;0.90;0.80;;;;;;;;;;5072267;28;20411;-49
2022/08/07 09:01:25;;;;;;;1.60;0.80;;;;;;;;;;5069993;28;20409;-49
2022/08/07 09:03:57;;;;;;;1.20;0.70;;;;;;;;;;5072273;28;20499;-49
2022/08/07 09:06:26;;;;;;;0.80;0.70;;;;;;;;;;5088728;28;20934;-49
2022/08/07 09:09:00;;;;;;;2.07;0.90;;;;;;;;;;5092135;28;20455;-49
2022/08/07 09:11:34;;;;;;;1.03;0.93;;;;;;;;;;5091613;28;20406;-48
2022/08/07 09:14:04;;;;;;;1.87;0.90;;;;;;;;;;5092271;28;20390;-49
2022/08/07 09:16:49;;;;;;;1.80;0.80;;;;;;;;;;5080478;28;20489;-48
2022/08/07 09:19:20;;;;;;;0.90;0.90;;;;;;;;;;5071805;28;20408;-49
2022/08/07 09:22:02;;;;;;;1.03;0.70;;;;;;;;;;5071216;28;20396;-49
2022/08/07 09:24:28;;;;;;;1.10;0.73;;;;;;;;;;5071811;28;20399;-48
2022/08/07 09:26:54;;;;;;;1.50;1.30;;;;;;;;;;5071726;28;20416;-49
2022/08/07 09:29:38;;;;;;;2.30;0.83;;;;;;;;;;5071804;28;20257;-49
2022/08/07 09:32:24;;;;;;;1.27;0.70;;;;;;;;;;5071437;28;20687;-49
2022/08/07 09:34:53;;;;;;;2.90;0.80;;;;;;;;;;5071890;28;20404;-48
2022/08/07 09:37:33;;;;;;;0.70;0.70;;;;;;;;;;5071538;28;20412;-50
2022/08/07 09:40:04;;;;;;;0.80;0.70;;;;;;;;;;5071157;28;20392;-50
2022/08/07 09:42:30;;;;;;;0.80;0.70;;;;;;;;;;5071792;28;20888;-49
2022/08/07 09:45:15;;;;;;;1.90;0.80;;;;;;;;;;5071794;28;20428;-49
2022/08/07 09:47:48;;;;;;;2.30;0.90;;;;;;;;;;5054836;28;20559;-49
2022/08/07 09:50:19;;;;;;;0.80;0.70;;;;;;;;;;5071100;28;20427;-49
2022/08/07 09:52:49;;;;;;;0.80;0.80;;;;;;;;;;5071673;28;20818;-49
2022/08/07 09:55:21;;;;;;;1.00;0.70;;;;;;;;;;5071700;28;20475;-49
2022/08/07 09:57:47;;;;;;;1.20;0.70;;;;;;;;;;5070954;28;20448;-49
2022/08/07 10:00:19;;;;;;;1.23;0.90;;;;;;;;;;5070069;28;20421;-49
2022/08/07 10:02:56;;;;;;;1.10;0.80;;;;;;;;;;5070700;28;20450;-49
2022/08/07 10:05:38;;;;;;;0.80;0.70;;;;;;;;;;5070709;28;20457;-49
2022/08/07 10:08:04;;;;;;;0.90;0.70;;;;;;;;;;5070610;28;20456;-49
2022/08/07 10:10:34;;;;;;;4.67;0.70;;;;;;;;;;5069949;28;20423;-50
2022/08/07 10:13:03;;;;;;;0.90;0.80;;;;;;;;;;5070617;28;20396;-49
2022/08/07 10:15:35;;;;;;;1.07;0.70;;;;;;;;;;5069227;28;20425;-49
2022/08/07 10:18:16;;;;;;;0.90;0.73;;;;;;;;;;5069507;28;21018;-49
2022/08/07 10:20:49;;;;;;;2.40;0.70;;;;;;;;;;5070096;28;20747;-49
2022/08/07 10:23:18;;;;;;;0.80;0.80;;;;;;;;;;5070479;28;20416;-49
2022/08/07 10:25:47;;;;;;;0.83;0.60;;;;;;;;;;5070407;28;20393;-49
2022/08/07 10:28:22;;;;;;;1.70;0.97;;;;;;;;;;5069054;28;20456;-49
2022/08/07 10:31:07;;;;;;;1.00;0.70;;;;;;;;;;5069674;28;20392;-49
2022/08/07 10:33:45;;;;;;;1.03;0.90;;;;;;;;;;5070341;28;20399;-49
2022/08/07 10:36:21;;;;;;;1.93;0.80;;;;;;;;;;5070260;28;20408;-49
2022/08/07 10:38:47;;;;;;;0.97;0.87;;;;;;;;;;5072761;28;20437;-49
2022/08/07 10:41:32;;;;;;;0.90;0.70;;;;;;;;;;5073101;28;20424;-49
2022/08/07 10:43:58;;;;;;;4.20;0.93;;;;;;;;;;5073786;28;20432;-49
2022/08/07 10:46:25;;;;;;;0.80;0.80;;;;;;;;;;5065514;28;20580;-49
2022/08/07 10:49:13;;;;;;;1.47;0.80;;;;;;;;;;5053510;28;20214;-49
2022/08/07 10:51:38;;;;;;;1.43;0.80;;;;;;;;;;5052924;28;20429;-51
2022/08/07 10:54:12;;;;;;;1.23;0.70;;;;;;;;;;5053512;28;20429;-49
2022/08/07 10:56:57;;;;;;;1.30;0.70;;;;;;;;;;5016483;28;1067901;-50
2022/08/07 10:59:35;;;;;;;1.07;0.83;;;;;;;;;;5054625;28;20743;-50
2022/08/07 11:02:05;;;;;;;1.77;1.10;;;;;;;;;;5054176;28;20484;-50
2022/08/07 11:04:37;;;;;;;1.00;0.83;;;;;;;;;;5054785;28;20404;-49
2022/08/07 11:07:26;;;;;;;1.10;0.90;;;;;;;;;;5054450;28;20433;-50
2022/08/07 11:09:56;;;;;;;1.53;0.67;;;;;;;;;;5048157;28;20499;-50
2022/08/07 11:12:31;;;;;;;0.87;0.80;;;;;;;;;;5054452;28;20410;-50
2022/08/07 11:15:08;;;;;;;1.27;0.60;;;;;;;;;;5054083;28;20396;-50
2022/08/07 11:17:37;;;;;;;0.80;0.80;;;;;;;;;;5074241;28;20431;-49
2022/08/07 11:20:19;;;;;;;1.20;0.87;;;;;;;;;;5073039;28;20412;-50
2022/08/07 11:22:48;;;;;;;1.00;0.90;;;;;;;;;;5073835;28;20451;-50
2022/08/07 11:25:17;;;;;;;1.00;0.90;;;;;;;;;;5074250;28;20404;-50
2022/08/07 11:27:57;;;;;;;0.80;0.70;;;;;;;;;;5073971;28;20456;-50
2022/08/07 11:30:25;;;;;;;0.80;0.80;;;;;;;;;;5073411;28;20404;-50
2022/08/07 11:32:56;;;;;;;1.47;1.00;;;;;;;;;;5074114;28;20408;-50
2022/08/07 11:35:30;;;;;;;0.80;0.70;;;;;;;;;;5074013;28;20400;-50
2022/08/07 11:38:16;;;;;;;1.20;0.80;;;;;;;;;;5073944;28;20511;-50
2022/08/07 11:40:55;;;;;;;0.80;0.80;;;;;;;;;;5073196;28;20408;-50
2022/08/07 11:43:23;;;;;;;1.23;0.80;;;;;;;;;;5073864;28;20864;-49
2022/08/07 11:46:07;;;;;;;7.13;0.83;;;;;;;;;;5069067;28;20486;-51
2022/08/07 11:48:39;;;;;;;1.20;0.83;;;;;;;;;;5053049;28;20871;-51
2022/08/07 11:51:15;;;;;;;0.90;0.70;;;;;;;;;;5052626;28;20768;-50
2022/08/07 11:53:44;;;;;;;0.80;0.70;;;;;;;;;;5053691;28;20826;-50
2022/08/07 11:56:25;;;;;;;2.80;1.10;;;;;;;;;;5053535;28;20421;-50
2022/08/07 11:59:10;;;;;;;0.90;0.70;;;;;;;;;;5053740;28;20484;-49
2022/08/07 12:02:05;;;;;;;1.00;0.90;;;;;;;;;;5052760;28;20400;-50
2022/08/07 12:04:50;;;;;;;0.90;0.80;;;;;;;;;;5016494;28;20407;-50
2022/08/07 12:07:19;;;;;;;1.30;0.80;;;;;;;;;;5053267;28;20468;-50
2022/08/07 12:09:51;;;;;;;0.80;0.80;;;;;;;;;;5052646;28;20486;-50
2022/08/07 12:12:27;;;;;;;0.80;0.80;;;;;;;;;;5053327;28;20401;-50
2022/08/07 12:15:05;;;;;;;2.00;0.87;;;;;;;;;;5053258;28;20957;-50
2022/08/07 12:17:40;;;;;;;2.40;0.90;;;;;;;;;;5053216;28;20453;-50
2022/08/07 12:20:09;;;;;;;1.67;0.90;;;;;;;;;;5071009;28;20543;-50
2022/08/07 12:22:46;;;;;;;1.43;0.70;;;;;;;;;;5073003;28;20469;-50
2022/08/07 12:28:20;;;;;;;1.10;0.70;;;;;;;;;;5072985;28;20555;-50
2022/08/07 12:30:49;;;;;;;0.80;0.70;;;;;;;;;;5072203;28;20397;-50
2022/08/07 12:33:17;;;;;;;0.90;0.80;;;;;;;;;;5065869;28;20412;-50
2022/08/07 12:35:44;;;;;;;1.93;1.00;;;;;;;;;;5058024;28;20420;-50
2022/08/07 12:38:12;;;;;;;1.30;0.80;;;;;;;;;;5052768;28;20418;-50
2022/08/07 12:40:39;;;;;;;0.80;0.60;;;;;;;;;;5052051;28;20454;-50
2022/08/07 12:43:07;;;;;;;1.43;0.73;;;;;;;;;;5052671;28;20492;-50
2022/08/07 12:45:36;;;;;;;1.10;0.80;;;;;;;;;;5052624;28;20409;-50
2022/08/07 12:48:03;;;;;;;1.00;0.83;;;;;;;;;;5051992;28;20492;-50
2022/08/07 12:50:38;;;;;;;0.80;0.67;;;;;;;;;;5051844;28;20913;-51
2022/08/07 12:53:11;;;;;;;0.80;0.80;;;;;;;;;;5052503;28;20956;-50
2022/08/07 12:55:41;;;;;;;0.90;0.90;;;;;;;;;;5052730;28;20754;-50
2022/08/07 12:58:09;;;;;;;1.03;0.90;;;;;;;;;;5052522;28;20448;-50
2022/08/07 13:00:51;;;;;;;0.80;0.80;;;;;;;;;;5051270;28;20411;-50
2022/08/07 13:03:32;;;;;;;0.97;0.80;;;;;;;;;;5052475;28;20409;-50
2022/08/07 13:06:08;;;;;;;0.80;0.70;;;;;;;;;;5052195;28;20461;-50
2022/08/07 13:08:52;;;;;;;0.80;0.70;;;;;;;;;;5052717;28;20514;-50
2022/08/07 13:11:36;;;;;;;0.93;0.90;;;;;;;;;;5052074;28;20393;-50
2022/08/07 13:14:07;;;;;;;0.93;0.87;;;;;;;;;;5065839;28;20406;-50
2022/08/07 13:16:52;;;;;;;1.20;0.80;;;;;;;;;;5082039;28;20447;-50
2022/08/07 13:19:39;;;;;;;1.93;0.87;;;;;;;;;;5071812;28;20507;-50
2022/08/07 13:22:17;;;;;;;0.87;0.70;;;;;;;;;;5071424;28;20454;-50
2022/08/07 13:25:02;;;;;;;1.13;0.87;;;;;;;;;;5071546;28;20412;-50
2022/08/07 13:27:36;;;;;;;1.10;0.77;;;;;;;;;;5071446;28;20856;-50
2022/08/07 13:30:04;;;;;;;1.27;0.80;;;;;;;;;;5071084;28;20908;-51
2022/08/07 13:32:37;;;;;;;2.00;0.80;;;;;;;;;;5052056;28;20436;-50
2022/08/07 13:35:09;;;;;;;0.97;0.70;;;;;;;;;;5051824;28;20401;-50
2022/08/07 13:37:43;;;;;;;1.00;0.90;;;;;;;;;;5051458;28;20418;-50
2022/08/07 13:40:33;;;;;;;0.90;0.70;;;;;;;;;;5050893;28;20405;-51
2022/08/07 13:43:00;;;;;;;2.90;1.43;;;;;;;;;;5032318;28;20420;-50
2022/08/07 13:45:27;;;;;;;2.23;0.83;;;;;;;;;;5051656;28;20409;-50
2022/08/07 13:47:55;;;;;;;1.17;0.90;;;;;;;;;;5050580;28;20465;-50
2022/08/07 13:50:23;;;;;;;0.80;0.70;;;;;;;;;;5050772;28;20405;-50
2022/08/07 13:52:50;;;;;;;1.10;0.90;;;;;;;;;;5051850;28;20451;-50
2022/08/07 13:55:20;;;;;;;0.90;0.70;;;;;;;;;;5059176;28;20420;-50
2022/08/07 13:57:48;;;;;;;1.50;0.80;;;;;;;;;;5071404;28;20452;-50
2022/08/07 14:00:15;;;;;;;1.10;0.80;;;;;;;;;;5071313;28;20487;-49
2022/08/07 14:02:42;;;;;;;0.80;0.80;;;;;;;;;;5060932;28;20982;-49
2022/08/07 14:05:20;;;;;;;1.27;0.73;;;;;;;;;;5051310;28;20439;-49
2022/08/07 14:07:48;;;;;;;0.90;0.80;;;;;;;;;;5051317;28;20510;-49
2022/08/07 14:10:16;;;;;;;0.90;0.80;;;;;;;;;;5050766;28;20409;-50
2022/08/07 14:12:57;;;;;;;3.93;0.80;;;;;;;;;;5052563;28;20491;-50
2022/08/07 14:15:28;;;;;;;0.70;0.70;;;;;;;;;;5055102;28;20488;-50
2022/08/07 14:17:57;;;;;;;0.80;0.70;;;;;;;;;;5055157;28;20767;-49
2022/08/07 14:20:26;;;;;;;0.80;0.73;;;;;;;;;;5053887;28;20803;-50
2022/08/07 14:22:53;;;;;;;1.00;0.80;;;;;;;;;;5055277;28;20443;-49
2022/08/07 14:25:23;;;;;;;0.97;0.60;;;;;;;;;;5055070;28;20417;-51
2022/08/07 14:27:51;;;;;;;0.80;0.70;;;;;;;;;;5055518;28;20468;-50
2022/08/07 14:30:17;;;;;;;1.00;0.70;;;;;;;;;;5064504;28;20435;-49
2022/08/07 14:32:44;;;;;;;6.73;0.80;;;;;;;;;;5074942;28;20442;-49
2022/08/07 14:35:25;;;;;;;1.00;0.70;;;;;;;;;;5075238;28;20747;-50
2022/08/07 14:37:52;;;;;;;0.80;0.73;;;;;;;;;;5074896;28;20508;-50
2022/08/07 14:40:20;;;;;;;0.80;0.77;;;;;;;;;;5074042;28;20836;-49
2022/08/07 14:42:53;;;;;;;0.90;0.80;;;;;;;;;;5074736;28;20408;-49
2022/08/07 14:45:19;;;;;;;0.77;0.77;;;;;;;;;;5074833;28;20483;-51
2022/08/07 14:47:46;;;;;;;1.40;0.80;;;;;;;;;;5074676;28;20494;-49
2022/08/07 14:50:18;;;;;;;1.17;0.70;;;;;;;;;;5074070;28;20404;-50
2022/08/07 14:52:46;;;;;;;1.00;0.77;;;;;;;;;;5073991;28;20918;-51
2022/08/07 14:55:13;;;;;;;1.10;0.90;;;;;;;;;;5054509;28;20413;-51
2022/08/07 14:57:39;;;;;;;1.00;0.70;;;;;;;;;;5054516;28;20479;-50
2022/08/07 15:00:08;;;;;;;1.00;0.80;;;;;;;;;;5053870;28;20407;-50
2022/08/07 15:02:35;;;;;;;5.53;0.80;;;;;;;;;;5054505;28;20404;-50
2022/08/07 15:05:02;;;;;;;0.90;0.90;;;;;;;;;;5054412;28;20409;-50
2022/08/07 15:07:29;;;;;;;1.83;0.80;;;;;;;;;;5054039;28;20551;-51